Time;durP1;ratioP1;P1;durP2;ratioP2;P2;SDS_P1;SDS_P2;PMS_P1;PMS_P2;Temp;Humidity;BMP_temperature;BMP_pressure;BME280_temperature;BME280_humidity;BME280_pressure;Samples;Min_cycle;Max_cycle;Signal;HPM_P1;HPM_P2
2021/08/14 00:00:50;;;;;;;48.67;46.07;;;;;;;;;;5005177;28;20453;-69
2021/08/14 00:03:17;;;;;;;49.67;46.90;;;;;;;;;;4995446;28;20563;-69
2021/08/14 00:05:44;;;;;;;49.40;46.70;;;;;;;;;;5012550;28;20449;-69
2021/08/14 00:08:11;;;;;;;45.20;42.70;;;;;;;;;;5014434;28;20960;-69
2021/08/14 00:10:38;;;;;;;44.67;42.20;;;;;;;;;;5014888;28;20461;-69
2021/08/14 00:13:05;;;;;;;43.63;41.23;;;;;;;;;;5014937;28;20976;-69
2021/08/14 00:15:32;;;;;;;41.57;39.27;;;;;;;;;;5014954;28;20492;-69
2021/08/14 00:18:01;;;;;;;40.93;38.53;;;;;;;;;;5015184;28;20928;-68
2021/08/14 00:20:28;;;;;;;40.50;38.20;;;;;;;;;;5014706;28;20453;-69
2021/08/14 00:22:58;;;;;;;38.73;36.53;;;;;;;;;;5015036;28;20450;-69
2021/08/14 00:25:25;;;;;;;39.20;36.97;;;;;;;;;;5015431;28;20482;-69
2021/08/14 00:27:52;;;;;;;38.67;36.37;;;;;;;;;;5015172;28;20473;-69
2021/08/14 00:30:19;;;;;;;38.60;36.20;;;;;;;;;;5015019;28;20452;-69
2021/08/14 00:32:46;;;;;;;38.40;36.00;;;;;;;;;;5015290;28;20453;-69
2021/08/14 00:35:15;;;;;;;36.83;34.50;;;;;;;;;;5014830;28;20477;-69
2021/08/14 00:37:42;;;;;;;35.77;33.60;;;;;;;;;;5014339;28;20481;-69
2021/08/14 00:40:10;;;;;;;36.40;34.30;;;;;;;;;;5015770;28;20454;-69
2021/08/14 00:42:37;;;;;;;34.07;32.07;;;;;;;;;;5015771;28;20453;-69
2021/08/14 00:45:04;;;;;;;34.93;32.73;;;;;;;;;;5015985;28;20501;-69
2021/08/14 00:47:31;;;;;;;33.90;31.80;;;;;;;;;;5015574;28;20456;-69
2021/08/14 00:49:59;;;;;;;33.80;31.77;;;;;;;;;;5014586;28;20458;-69
2021/08/14 00:52:27;;;;;;;34.47;32.50;;;;;;;;;;5014697;28;20453;-69
2021/08/14 00:54:54;;;;;;;33.87;31.73;;;;;;;;;;5014973;28;20472;-69
2021/08/14 00:57:21;;;;;;;33.93;31.80;;;;;;;;;;5014640;28;20846;-69
2021/08/14 00:59:49;;;;;;;34.27;32.17;;;;;;;;;;5014896;28;20456;-69
2021/08/14 01:02:16;;;;;;;34.10;32.00;;;;;;;;;;5014403;28;20456;-72
2021/08/14 01:04:45;;;;;;;34.07;32.00;;;;;;;;;;5014947;28;20481;-70
2021/08/14 01:07:12;;;;;;;33.50;31.60;;;;;;;;;;5013616;28;20471;-69
2021/08/14 01:09:41;;;;;;;35.70;33.20;;;;;;;;;;5014484;28;20460;-69
2021/08/14 01:12:08;;;;;;;34.63;32.50;;;;;;;;;;5013578;28;20449;-69
2021/08/14 01:14:35;;;;;;;36.03;33.70;;;;;;;;;;5013936;28;20474;-69
2021/08/14 01:17:02;;;;;;;36.37;34.07;;;;;;;;;;5013174;28;21009;-69
2021/08/14 01:19:30;;;;;;;35.30;33.10;;;;;;;;;;5013908;28;20458;-69
2021/08/14 01:21:57;;;;;;;38.30;36.00;;;;;;;;;;5013424;28;20449;-69
2021/08/14 01:24:24;;;;;;;37.03;34.67;;;;;;;;;;5013604;28;20470;-69
2021/08/14 01:26:52;;;;;;;36.27;33.77;;;;;;;;;;5013516;28;20945;-69
2021/08/14 01:29:20;;;;;;;33.37;31.37;;;;;;;;;;5013658;28;20454;-69
2021/08/14 01:31:47;;;;;;;35.50;33.00;;;;;;;;;;5013415;28;20445;-69
2021/08/14 01:34:14;;;;;;;33.40;31.30;;;;;;;;;;5012987;28;20493;-69
2021/08/14 01:36:41;;;;;;;35.30;32.87;;;;;;;;;;5012596;28;20489;-69
2021/08/14 01:39:08;;;;;;;35.10;33.00;;;;;;;;;;5012555;28;20453;-70
2021/08/14 01:41:35;;;;;;;35.17;33.03;;;;;;;;;;5012373;28;20456;-69
2021/08/14 01:44:05;;;;;;;34.37;32.27;;;;;;;;;;5012746;28;20473;-70
2021/08/14 01:46:34;;;;;;;33.70;31.60;;;;;;;;;;5012869;28;20454;-69
2021/08/14 01:49:01;;;;;;;33.97;31.67;;;;;;;;;;5013691;28;20457;-68
2021/08/14 01:51:28;;;;;;;34.70;32.70;;;;;;;;;;5013907;28;20461;-67
2021/08/14 01:53:56;;;;;;;33.43;31.43;;;;;;;;;;5013272;28;20473;-67
2021/08/14 01:56:24;;;;;;;33.67;31.67;;;;;;;;;;5013817;28;20859;-67
2021/08/14 01:58:51;;;;;;;33.50;31.40;;;;;;;;;;5013977;28;20460;-67
2021/08/14 02:01:20;;;;;;;34.47;32.33;;;;;;;;;;5013960;28;20454;-67
2021/08/14 02:03:47;;;;;;;34.87;32.70;;;;;;;;;;5013725;28;21006;-67
2021/08/14 02:06:14;;;;;;;33.40;31.40;;;;;;;;;;5013384;28;20448;-67
2021/08/14 02:08:42;;;;;;;33.53;31.60;;;;;;;;;;5013448;28;20459;-69
2021/08/14 02:11:12;;;;;;;33.60;31.60;;;;;;;;;;5012802;28;20454;-67
2021/08/14 02:13:39;;;;;;;33.43;31.53;;;;;;;;;;5013003;28;20469;-69
2021/08/14 02:16:07;;;;;;;32.53;30.70;;;;;;;;;;5012123;28;20453;-69
2021/08/14 02:18:36;;;;;;;33.30;31.20;;;;;;;;;;5011728;28;20456;-69
2021/08/14 02:21:03;;;;;;;32.27;30.27;;;;;;;;;;5011530;28;20460;-69
2021/08/14 02:23:30;;;;;;;32.20;30.20;;;;;;;;;;5012832;28;20475;-69
2021/08/14 02:25:57;;;;;;;33.10;31.00;;;;;;;;;;5013083;28;20457;-68
2021/08/14 02:28:24;;;;;;;33.23;31.13;;;;;;;;;;5012569;28;20613;-69
2021/08/14 02:30:51;;;;;;;32.50;30.20;;;;;;;;;;5012446;28;20460;-68
2021/08/14 02:33:18;;;;;;;31.93;29.87;;;;;;;;;;4975404;28;1077919;-69
2021/08/14 02:35:47;;;;;;;31.97;29.87;;;;;;;;;;5018260;22;20494;-63
2021/08/14 02:38:14;;;;;;;31.30;29.40;;;;;;;;;;4997953;28;20490;-63
2021/08/14 02:40:41;;;;;;;30.13;28.23;;;;;;;;;;4992002;28;20450;-63
2021/08/14 02:43:08;;;;;;;30.53;28.67;;;;;;;;;;4992264;28;20459;-62
2021/08/14 02:45:35;;;;;;;31.07;29.17;;;;;;;;;;4992604;28;20488;-63
2021/08/14 02:48:02;;;;;;;29.83;27.93;;;;;;;;;;4992476;28;20447;-63
2021/08/14 02:50:30;;;;;;;31.07;29.00;;;;;;;;;;4991980;28;20451;-63
2021/08/14 02:52:59;;;;;;;30.80;29.00;;;;;;;;;;4992406;28;20457;-63
2021/08/14 02:55:26;;;;;;;30.10;28.10;;;;;;;;;;4992390;28;20471;-63
2021/08/14 02:57:54;;;;;;;30.67;28.87;;;;;;;;;;4991668;28;20490;-62
2021/08/14 03:00:21;;;;;;;31.07;29.17;;;;;;;;;;4992350;28;20454;-62
2021/08/14 03:02:48;;;;;;;30.60;28.67;;;;;;;;;;4991951;28;20847;-62
2021/08/14 03:05:15;;;;;;;30.27;28.27;;;;;;;;;;4991648;28;20462;-62
2021/08/14 03:07:42;;;;;;;31.50;29.30;;;;;;;;;;4991852;28;20442;-63
2021/08/14 03:10:11;;;;;;;30.23;28.23;;;;;;;;;;4992132;28;20447;-67
2021/08/14 03:12:38;;;;;;;29.43;27.70;;;;;;;;;;4992377;28;20534;-62
2021/08/14 03:15:06;;;;;;;30.57;28.40;;;;;;;;;;4987977;28;20482;-65
2021/08/14 03:17:33;;;;;;;29.20;27.33;;;;;;;;;;4965155;28;20855;-63
2021/08/14 03:20:01;;;;;;;29.40;27.60;;;;;;;;;;4971686;28;20455;-62
2021/08/14 03:22:29;;;;;;;29.77;27.83;;;;;;;;;;4972371;28;20447;-62
2021/08/14 03:24:56;;;;;;;29.73;27.93;;;;;;;;;;4972196;28;20479;-64
2021/08/14 03:27:24;;;;;;;29.97;27.93;;;;;;;;;;4972122;28;20452;-62
2021/08/14 03:29:51;;;;;;;29.07;27.20;;;;;;;;;;4974986;28;20451;-62
2021/08/14 03:32:18;;;;;;;27.83;26.23;;;;;;;;;;4975669;28;20455;-62
2021/08/14 03:34:46;;;;;;;28.80;26.90;;;;;;;;;;4975872;28;20486;-62
2021/08/14 03:37:13;;;;;;;29.03;27.23;;;;;;;;;;4976177;28;20497;-62
2021/08/14 03:39:40;;;;;;;29.30;27.50;;;;;;;;;;4975908;28;20456;-62
2021/08/14 03:42:07;;;;;;;30.07;28.23;;;;;;;;;;4975804;28;20458;-63
2021/08/14 03:44:36;;;;;;;29.30;27.40;;;;;;;;;;4976178;28;20475;-65
2021/08/14 03:47:04;;;;;;;28.17;26.40;;;;;;;;;;4975452;28;20943;-62
2021/08/14 03:49:31;;;;;;;28.30;26.60;;;;;;;;;;4975867;28;20969;-62
2021/08/14 03:51:58;;;;;;;28.03;26.33;;;;;;;;;;4975016;28;20451;-62
2021/08/14 03:54:25;;;;;;;27.90;26.20;;;;;;;;;;4975170;28;20467;-63
2021/08/14 03:56:54;;;;;;;28.80;26.90;;;;;;;;;;4975337;28;20487;-62
2021/08/14 03:59:21;;;;;;;28.63;26.73;;;;;;;;;;4975983;28;20873;-63
2021/08/14 04:01:49;;;;;;;28.03;26.43;;;;;;;;;;4975318;28;20463;-62
2021/08/14 04:04:16;;;;;;;28.60;26.93;;;;;;;;;;4975524;28;20475;-62
2021/08/14 04:06:43;;;;;;;27.53;25.93;;;;;;;;;;4975733;28;20477;-62
2021/08/14 04:09:11;;;;;;;28.47;26.47;;;;;;;;;;4975541;28;20461;-62
2021/08/14 04:11:42;;;;;;;29.67;27.43;;;;;;;;;;4975353;28;20455;-62
2021/08/14 04:14:09;;;;;;;29.17;27.30;;;;;;;;;;4975825;28;20446;-64
2021/08/14 04:16:36;;;;;;;29.43;27.40;;;;;;;;;;4974641;28;20451;-62
2021/08/14 04:19:05;;;;;;;30.13;28.23;;;;;;;;;;4973595;28;20459;-63
2021/08/14 04:21:32;;;;;;;29.57;27.43;;;;;;;;;;4962175;28;20448;-62
2021/08/14 04:23:59;;;;;;;29.53;27.47;;;;;;;;;;4956230;29;20452;-63
2021/08/14 04:26:28;;;;;;;30.67;28.37;;;;;;;;;;4966440;28;20448;-64
2021/08/14 04:28:55;;;;;;;29.47;27.53;;;;;;;;;;4975374;28;20459;-63
2021/08/14 04:31:23;;;;;;;29.17;27.37;;;;;;;;;;4974750;28;20447;-62
2021/08/14 04:33:50;;;;;;;29.60;27.37;;;;;;;;;;4975105;28;20459;-63
2021/08/14 04:36:18;;;;;;;29.83;27.70;;;;;;;;;;4975400;28;20456;-62
2021/08/14 04:38:46;;;;;;;29.53;27.50;;;;;;;;;;4955723;29;20851;-63
2021/08/14 04:41:13;;;;;;;29.70;27.60;;;;;;;;;;4954119;28;20515;-63
2021/08/14 04:43:40;;;;;;;27.50;25.87;;;;;;;;;;4972349;28;20455;-65
2021/08/14 04:46:07;;;;;;;30.17;28.07;;;;;;;;;;4974619;28;20990;-61
2021/08/14 04:48:34;;;;;;;30.53;28.53;;;;;;;;;;4974973;28;20451;-63
2021/08/14 04:51:01;;;;;;;28.23;26.40;;;;;;;;;;4975164;28;20450;-62
2021/08/14 04:53:30;;;;;;;28.20;26.47;;;;;;;;;;4974814;28;20447;-62
2021/08/14 04:55:57;;;;;;;30.17;28.17;;;;;;;;;;4975306;28;20483;-62
2021/08/14 04:58:24;;;;;;;28.80;27.00;;;;;;;;;;4974881;28;20483;-61
2021/08/14 05:00:51;;;;;;;28.33;26.60;;;;;;;;;;4974286;28;20469;-62
2021/08/14 05:03:18;;;;;;;29.90;27.90;;;;;;;;;;4975001;28;20532;-65
2021/08/14 05:05:45;;;;;;;28.63;26.83;;;;;;;;;;4974546;28;20841;-62
2021/08/14 05:08:12;;;;;;;29.30;27.40;;;;;;;;;;4974196;28;20547;-62
2021/08/14 05:10:41;;;;;;;32.50;29.73;;;;;;;;;;4974484;28;20477;-62
2021/08/14 05:13:08;;;;;;;29.77;27.80;;;;;;;;;;4974157;28;20462;-62
2021/08/14 05:15:35;;;;;;;29.80;27.73;;;;;;;;;;4974056;28;20471;-62
2021/08/14 05:18:02;;;;;;;29.80;27.70;;;;;;;;;;4974348;28;20479;-61
2021/08/14 05:20:29;;;;;;;29.83;27.87;;;;;;;;;;4974361;28;20466;-62
2021/08/14 05:22:56;;;;;;;30.57;28.67;;;;;;;;;;4974212;28;20455;-64
2021/08/14 05:25:25;;;;;;;33.67;31.10;;;;;;;;;;4967550;28;20468;-65
2021/08/14 05:27:54;;;;;;;34.87;32.00;;;;;;;;;;4969012;28;20537;-65
2021/08/14 05:30:21;;;;;;;34.27;31.80;;;;;;;;;;4974003;28;20451;-64
2021/08/14 05:32:48;;;;;;;34.27;31.67;;;;;;;;;;4973695;28;20459;-65
2021/08/14 05:35:15;;;;;;;36.10;33.40;;;;;;;;;;4973881;28;20494;-64
2021/08/14 05:37:42;;;;;;;34.53;32.13;;;;;;;;;;4973528;28;20514;-65
2021/08/14 05:40:10;;;;;;;36.10;33.50;;;;;;;;;;4974062;28;20459;-61
2021/08/14 05:42:37;;;;;;;34.57;32.17;;;;;;;;;;4974303;28;20455;-65
2021/08/14 05:45:06;;;;;;;35.60;32.93;;;;;;;;;;4973465;28;20999;-65
2021/08/14 05:47:33;;;;;;;35.07;32.57;;;;;;;;;;4973580;28;20455;-65
2021/08/14 05:50:00;;;;;;;34.03;31.50;;;;;;;;;;4973699;28;20455;-64
2021/08/14 05:52:27;;;;;;;32.90;30.70;;;;;;;;;;4973251;28;20452;-64
2021/08/14 05:54:54;;;;;;;34.17;31.43;;;;;;;;;;4973866;28;20477;-65
2021/08/14 05:57:21;;;;;;;33.43;30.63;;;;;;;;;;4973125;28;20470;-63
2021/08/14 05:59:49;;;;;;;33.47;31.10;;;;;;;;;;4973364;28;20456;-64
2021/08/14 06:02:17;;;;;;;50.70;47.73;;;;;;;;;;4972967;28;20456;-64
2021/08/14 06:04:44;;;;;;;34.33;31.73;;;;;;;;;;4973913;28;20477;-64
2021/08/14 06:07:11;;;;;;;33.80;31.40;;;;;;;;;;4973333;28;20459;-63
2021/08/14 06:09:39;;;;;;;33.10;30.70;;;;;;;;;;4973692;28;20469;-65
2021/08/14 06:12:06;;;;;;;32.33;30.30;;;;;;;;;;4973443;28;20460;-63
2021/08/14 06:14:33;;;;;;;33.00;30.53;;;;;;;;;;4973638;28;20476;-65
2021/08/14 06:17:00;;;;;;;31.80;29.57;;;;;;;;;;4972801;28;20466;-64
2021/08/14 06:19:29;;;;;;;33.70;31.50;;;;;;;;;;4973775;28;20487;-65
2021/08/14 06:21:57;;;;;;;32.03;29.70;;;;;;;;;;4973084;28;20502;-64
2021/08/14 06:24:24;;;;;;;31.83;29.53;;;;;;;;;;4973451;28;20475;-65
2021/08/14 06:26:51;;;;;;;30.33;28.27;;;;;;;;;;4973181;28;20460;-64
2021/08/14 06:29:18;;;;;;;29.40;27.50;;;;;;;;;;4973462;28;20458;-64
2021/08/14 06:31:45;;;;;;;29.87;27.70;;;;;;;;;;4972370;28;20456;-64
2021/08/14 06:34:12;;;;;;;31.53;29.13;;;;;;;;;;4972657;28;20490;-63
2021/08/14 06:36:41;;;;;;;31.83;29.57;;;;;;;;;;4972877;28;20447;-65
2021/08/14 06:39:08;;;;;;;31.43;29.30;;;;;;;;;;4973248;28;20490;-65
2021/08/14 06:41:35;;;;;;;31.03;29.10;;;;;;;;;;4972933;28;20821;-64
2021/08/14 06:44:03;;;;;;;30.53;28.53;;;;;;;;;;4973565;28;20459;-64
2021/08/14 06:46:30;;;;;;;28.77;26.77;;;;;;;;;;4973417;28;20447;-65
2021/08/14 06:48:57;;;;;;;28.43;26.73;;;;;;;;;;4972208;28;20820;-64
2021/08/14 06:51:24;;;;;;;29.97;27.87;;;;;;;;;;4972852;28;20452;-64
2021/08/14 06:53:52;;;;;;;28.70;26.57;;;;;;;;;;4972479;28;20478;-65
2021/08/14 06:56:19;;;;;;;33.10;30.77;;;;;;;;;;4973048;28;21021;-64
2021/08/14 06:58:46;;;;;;;33.70;31.80;;;;;;;;;;4972236;28;20479;-65
2021/08/14 07:01:14;;;;;;;32.17;30.10;;;;;;;;;;4972662;28;20455;-64
2021/08/14 07:03:41;;;;;;;31.83;29.77;;;;;;;;;;4972709;28;20979;-63
2021/08/14 07:06:08;;;;;;;29.40;27.07;;;;;;;;;;4976934;28;20988;-65
2021/08/14 07:08:35;;;;;;;35.70;33.40;;;;;;;;;;4976548;28;20460;-63
2021/08/14 07:11:03;;;;;;;29.87;27.80;;;;;;;;;;4976666;28;20459;-64
2021/08/14 07:13:30;;;;;;;29.10;27.20;;;;;;;;;;4976458;28;20451;-65
2021/08/14 07:15:58;;;;;;;29.93;28.03;;;;;;;;;;4976961;28;20478;-64
2021/08/14 07:18:25;;;;;;;27.97;26.17;;;;;;;;;;4975918;28;20479;-65
2021/08/14 07:20:52;;;;;;;28.90;27.10;;;;;;;;;;4976795;28;20455;-64
2021/08/14 07:23:19;;;;;;;27.47;25.67;;;;;;;;;;4975967;28;20635;-64
2021/08/14 07:25:46;;;;;;;27.57;25.60;;;;;;;;;;4976541;28;20471;-66
2021/08/14 07:28:15;;;;;;;28.43;26.63;;;;;;;;;;4976109;28;20532;-64
2021/08/14 07:30:42;;;;;;;25.90;24.30;;;;;;;;;;4975958;28;20462;-65
2021/08/14 07:33:09;;;;;;;27.87;26.13;;;;;;;;;;4976545;28;20460;-66
2021/08/14 07:35:36;;;;;;;27.90;26.07;;;;;;;;;;4957781;28;20484;-65
2021/08/14 07:38:03;;;;;;;26.40;24.70;;;;;;;;;;4965937;28;20491;-66
2021/08/14 07:40:30;;;;;;;25.30;23.63;;;;;;;;;;4976266;28;20469;-65
2021/08/14 07:42:57;;;;;;;25.73;24.03;;;;;;;;;;4976073;28;20452;-66
2021/08/14 07:45:26;;;;;;;26.00;24.40;;;;;;;;;;4975879;28;20516;-66
2021/08/14 07:47:53;;;;;;;27.07;25.37;;;;;;;;;;4976265;28;20465;-65
2021/08/14 07:50:21;;;;;;;30.60;28.70;;;;;;;;;;4975668;28;20454;-66
2021/08/14 07:52:48;;;;;;;28.87;27.00;;;;;;;;;;4975686;28;20460;-66
2021/08/14 07:55:16;;;;;;;28.77;26.97;;;;;;;;;;4974529;28;20475;-63
2021/08/14 07:57:43;;;;;;;27.57;25.87;;;;;;;;;;4969247;28;20452;-64
2021/08/14 08:00:11;;;;;;;27.77;25.97;;;;;;;;;;4975136;28;20451;-62
2021/08/14 08:02:40;;;;;;;29.10;27.10;;;;;;;;;;4970946;28;20550;-64
2021/08/14 08:05:08;;;;;;;26.67;24.97;;;;;;;;;;4975778;28;20573;-64
2021/08/14 08:07:37;;;;;;;28.57;26.60;;;;;;;;;;4975268;28;20464;-64
2021/08/14 08:10:06;;;;;;;26.60;24.80;;;;;;;;;;4976190;28;20446;-64
2021/08/14 08:12:33;;;;;;;25.90;24.40;;;;;;;;;;4975283;28;20455;-64
2021/08/14 08:15:00;;;;;;;26.50;24.90;;;;;;;;;;4975337;28;20546;-63
2021/08/14 08:17:27;;;;;;;26.23;24.63;;;;;;;;;;4975442;28;20463;-64
2021/08/14 08:19:56;;;;;;;28.23;26.63;;;;;;;;;;4974864;28;20497;-62
2021/08/14 08:22:23;;;;;;;27.00;25.30;;;;;;;;;;4974849;28;20458;-64
2021/08/14 08:24:51;;;;;;;26.97;25.27;;;;;;;;;;4975453;28;20483;-64
2021/08/14 08:27:18;;;;;;;27.63;25.83;;;;;;;;;;4974821;28;20553;-64
2021/08/14 08:29:45;;;;;;;27.10;25.43;;;;;;;;;;4975353;28;20454;-64
2021/08/14 08:32:12;;;;;;;26.93;25.00;;;;;;;;;;4974570;28;20456;-62
2021/08/14 08:34:39;;;;;;;27.67;25.97;;;;;;;;;;5003230;22;20478;-63
2021/08/14 08:37:08;;;;;;;26.73;25.00;;;;;;;;;;5013682;28;20844;-64
2021/08/14 08:39:35;;;;;;;25.37;23.77;;;;;;;;;;5026575;28;20487;-64
2021/08/14 08:42:03;;;;;;;26.10;24.50;;;;;;;;;;5013495;28;20454;-65
2021/08/14 08:44:30;;;;;;;27.40;25.70;;;;;;;;;;5014186;28;20453;-65
2021/08/14 08:46:58;;;;;;;26.23;24.70;;;;;;;;;;5013747;28;20830;-63
2021/08/14 08:49:26;;;;;;;27.27;25.37;;;;;;;;;;5013952;28;20454;-64
2021/08/14 08:51:53;;;;;;;26.30;24.70;;;;;;;;;;5001368;28;20516;-64
2021/08/14 08:54:22;;;;;;;27.27;25.40;;;;;;;;;;5013775;28;20449;-64
2021/08/14 08:56:49;;;;;;;28.10;26.40;;;;;;;;;;5013122;28;20457;-65
2021/08/14 08:59:16;;;;;;;27.40;25.80;;;;;;;;;;5013146;28;20481;-65
2021/08/14 09:01:44;;;;;;;26.60;24.97;;;;;;;;;;5012987;28;20460;-64
2021/08/14 09:04:21;;;;;;;26.60;25.00;;;;;;;;;;5013239;28;20485;-65
2021/08/14 09:06:48;;;;;;;24.77;23.23;;;;;;;;;;5013186;28;20445;-63
2021/08/14 09:09:15;;;;;;;24.30;22.93;;;;;;;;;;5012962;28;20450;-64
2021/08/14 09:11:50;;;;;;;26.40;24.90;;;;;;;;;;5012476;28;20481;-64
2021/08/14 09:14:18;;;;;;;26.93;25.27;;;;;;;;;;5013226;28;20454;-64
2021/08/14 09:16:45;;;;;;;27.20;25.30;;;;;;;;;;5012919;28;20963;-64
2021/08/14 09:19:21;;;;;;;27.00;25.30;;;;;;;;;;5013240;28;20496;-64
2021/08/14 09:21:48;;;;;;;26.77;24.83;;;;;;;;;;5013027;28;20456;-64
2021/08/14 09:24:30;;;;;;;24.20;22.60;;;;;;;;;;5013188;28;20457;-64
2021/08/14 09:27:03;;;;;;;27.63;25.90;;;;;;;;;;5011921;28;20455;-64
2021/08/14 09:29:31;;;;;;;26.33;24.63;;;;;;;;;;5007120;28;20464;-65
2021/08/14 09:31:59;;;;;;;24.13;22.60;;;;;;;;;;5013013;28;20453;-63
2021/08/14 09:34:27;;;;;;;24.83;23.23;;;;;;;;;;5012443;28;20453;-66
2021/08/14 09:37:01;;;;;;;23.57;21.80;;;;;;;;;;5012969;28;20453;-64
2021/08/14 09:39:28;;;;;;;24.47;22.83;;;;;;;;;;5012083;28;21007;-64
2021/08/14 09:42:04;;;;;;;24.97;23.50;;;;;;;;;;5001407;28;20458;-65
2021/08/14 09:44:31;;;;;;;23.80;22.30;;;;;;;;;;5012574;28;20536;-64
2021/08/14 09:46:58;;;;;;;25.20;23.60;;;;;;;;;;5012753;28;20454;-64
2021/08/14 09:49:25;;;;;;;25.37;23.67;;;;;;;;;;5011858;28;20446;-65
2021/08/14 09:51:52;;;;;;;24.13;22.60;;;;;;;;;;5000113;28;20988;-64
2021/08/14 09:54:20;;;;;;;24.23;22.77;;;;;;;;;;5012571;28;20461;-64
2021/08/14 09:56:47;;;;;;;25.97;24.27;;;;;;;;;;5011909;28;21071;-64
2021/08/14 09:59:16;;;;;;;24.93;23.17;;;;;;;;;;5008876;28;20481;-63
2021/08/14 10:01:43;;;;;;;25.17;23.57;;;;;;;;;;5011877;28;20454;-62
2021/08/14 10:04:11;;;;;;;26.33;24.43;;;;;;;;;;5012459;28;20532;-63
2021/08/14 10:06:40;;;;;;;27.37;25.67;;;;;;;;;;5012890;28;20841;-63
2021/08/14 10:09:07;;;;;;;26.40;24.60;;;;;;;;;;5012541;28;20983;-63
2021/08/14 10:11:35;;;;;;;27.00;25.10;;;;;;;;;;5011776;28;20446;-63
2021/08/14 10:14:03;;;;;;;27.00;25.27;;;;;;;;;;5012250;28;20459;-63
2021/08/14 10:16:31;;;;;;;27.30;25.70;;;;;;;;;;5012022;28;20890;-63
2021/08/14 10:18:59;;;;;;;27.27;25.67;;;;;;;;;;5012085;28;20496;-63
2021/08/14 10:21:27;;;;;;;26.07;24.57;;;;;;;;;;5011933;28;20453;-63
2021/08/14 10:23:56;;;;;;;25.97;24.37;;;;;;;;;;5012130;28;20515;-62
2021/08/14 10:26:27;;;;;;;28.20;26.50;;;;;;;;;;5011868;28;20473;-63
2021/08/14 10:28:54;;;;;;;26.87;25.20;;;;;;;;;;5012045;28;20453;-62
2021/08/14 10:31:40;;;;;;;27.00;25.40;;;;;;;;;;5011953;28;20441;-62
2021/08/14 10:34:22;;;;;;;27.13;25.43;;;;;;;;;;5012329;28;20454;-62
2021/08/14 10:36:50;;;;;;;27.20;25.60;;;;;;;;;;5011532;28;20821;-61
2021/08/14 10:39:19;;;;;;;26.40;24.60;;;;;;;;;;5011655;28;20819;-62
2021/08/14 10:41:47;;;;;;;26.50;24.90;;;;;;;;;;5011438;28;20460;-65
2021/08/14 10:44:15;;;;;;;23.73;22.17;;;;;;;;;;5012246;28;20450;-62
2021/08/14 10:46:44;;;;;;;25.83;24.17;;;;;;;;;;5010418;28;20516;-64
2021/08/14 10:49:12;;;;;;;26.07;24.30;;;;;;;;;;5006767;28;20446;-61
2021/08/14 10:51:59;;;;;;;24.20;22.63;;;;;;;;;;5010396;28;20454;-63
2021/08/14 10:54:45;;;;;;;25.27;23.83;;;;;;;;;;5005472;28;20458;-64
2021/08/14 10:57:15;;;;;;;22.63;21.23;;;;;;;;;;5011325;28;20480;-65
2021/08/14 11:00:00;;;;;;;24.70;23.23;;;;;;;;;;5011507;28;20482;-65
2021/08/14 11:02:34;;;;;;;25.90;24.30;;;;;;;;;;5009723;28;20449;-66
2021/08/14 11:05:01;;;;;;;25.03;23.33;;;;;;;;;;5011730;28;20466;-64
2021/08/14 11:07:32;;;;;;;25.53;23.83;;;;;;;;;;5011190;28;20831;-67
2021/08/14 11:10:13;;;;;;;26.17;24.47;;;;;;;;;;5011393;28;20453;-65
2021/08/14 11:12:42;;;;;;;25.50;23.90;;;;;;;;;;5010064;28;20457;-66
2021/08/14 11:15:16;;;;;;;25.13;23.73;;;;;;;;;;5011530;28;20476;-64
2021/08/14 11:17:44;;;;;;;24.90;23.40;;;;;;;;;;5011361;28;20445;-63
2021/08/14 11:20:26;;;;;;;26.60;24.87;;;;;;;;;;5011576;28;20493;-63
2021/08/14 11:22:55;;;;;;;26.30;24.90;;;;;;;;;;4996555;28;21031;-63
2021/08/14 11:25:23;;;;;;;25.47;23.87;;;;;;;;;;5001727;28;20474;-63
2021/08/14 11:27:56;;;;;;;25.73;24.17;;;;;;;;;;4992428;28;20450;-62
2021/08/14 11:30:24;;;;;;;25.30;23.80;;;;;;;;;;4991792;28;20451;-62
2021/08/14 11:32:52;;;;;;;26.27;24.37;;;;;;;;;;4997522;28;20468;-63
2021/08/14 11:35:20;;;;;;;26.97;25.17;;;;;;;;;;5010948;28;20835;-62
2021/08/14 11:37:54;;;;;;;24.30;23.00;;;;;;;;;;5010494;28;20535;-61
2021/08/14 11:40:22;;;;;;;26.13;24.40;;;;;;;;;;5009847;28;20493;-62
2021/08/14 11:42:58;;;;;;;26.57;24.77;;;;;;;;;;5001812;28;20461;-63
2021/08/14 11:45:25;;;;;;;25.40;23.90;;;;;;;;;;5011634;28;20482;-63
2021/08/14 11:47:57;;;;;;;25.37;23.63;;;;;;;;;;5011617;28;20524;-63
2021/08/14 11:50:24;;;;;;;26.53;24.80;;;;;;;;;;4999825;28;20532;-64
2021/08/14 11:52:51;;;;;;;25.27;23.70;;;;;;;;;;4995900;28;20737;-63
2021/08/14 11:55:19;;;;;;;25.43;23.90;;;;;;;;;;4995471;28;20482;-65
2021/08/14 11:57:46;;;;;;;26.00;24.40;;;;;;;;;;4995507;28;20462;-66
2021/08/14 12:00:25;;;;;;;26.00;24.43;;;;;;;;;;5006856;28;20492;-63
2021/08/14 12:03:04;;;;;;;23.90;22.40;;;;;;;;;;5014827;28;20503;-64
2021/08/14 12:05:31;;;;;;;23.10;21.70;;;;;;;;;;5014953;28;21027;-63
2021/08/14 12:07:58;;;;;;;23.37;21.93;;;;;;;;;;5014891;28;20822;-63
2021/08/14 12:10:26;;;;;;;23.50;22.00;;;;;;;;;;5014854;28;20456;-63
2021/08/14 12:12:57;;;;;;;23.57;22.17;;;;;;;;;;4998602;28;20469;-63
2021/08/14 12:15:34;;;;;;;23.70;22.37;;;;;;;;;;4995540;28;20505;-63
2021/08/14 12:18:01;;;;;;;23.83;22.43;;;;;;;;;;4995181;28;20431;-64
2021/08/14 12:20:32;;;;;;;24.80;23.37;;;;;;;;;;4995201;28;20496;-65
2021/08/14 12:23:14;;;;;;;23.60;22.30;;;;;;;;;;4995295;28;20450;-64
2021/08/14 12:25:49;;;;;;;23.77;22.37;;;;;;;;;;4998637;28;20997;-63
2021/08/14 12:28:16;;;;;;;23.90;22.50;;;;;;;;;;5001576;28;20940;-62
2021/08/14 12:30:45;;;;;;;23.70;22.33;;;;;;;;;;5014173;28;20537;-64
2021/08/14 12:33:26;;;;;;;25.60;24.10;;;;;;;;;;5013335;28;20477;-63
2021/08/14 12:35:57;;;;;;;25.03;23.43;;;;;;;;;;5013476;28;20564;-63
2021/08/14 12:38:24;;;;;;;23.47;22.07;;;;;;;;;;5014381;28;20438;-63
2021/08/14 12:40:51;;;;;;;24.17;22.50;;;;;;;;;;5013147;28;20488;-64
2021/08/14 12:43:19;;;;;;;24.27;22.87;;;;;;;;;;5013982;28;20484;-63
2021/08/14 12:45:47;;;;;;;23.73;22.33;;;;;;;;;;4994433;28;20471;-63
2021/08/14 12:48:16;;;;;;;24.47;22.50;;;;;;;;;;5003560;28;20458;-62
2021/08/14 12:50:43;;;;;;;24.03;22.43;;;;;;;;;;5013608;28;20816;-64
2021/08/14 12:53:11;;;;;;;24.57;23.10;;;;;;;;;;5014274;28;20476;-63
2021/08/14 12:55:39;;;;;;;23.70;22.33;;;;;;;;;;5013519;28;20481;-63
2021/08/14 12:58:07;;;;;;;24.20;22.90;;;;;;;;;;5011115;28;20454;-63
2021/08/14 13:00:35;;;;;;;23.67;22.07;;;;;;;;;;5013725;28;20519;-63
2021/08/14 13:03:04;;;;;;;22.77;21.47;;;;;;;;;;5012414;28;20496;-64
2021/08/14 13:05:31;;;;;;;24.03;22.67;;;;;;;;;;5013309;28;20469;-63
2021/08/14 13:07:58;;;;;;;23.53;22.13;;;;;;;;;;5013590;28;20967;-63
2021/08/14 13:10:26;;;;;;;24.00;22.30;;;;;;;;;;5013595;28;20446;-63
2021/08/14 13:12:54;;;;;;;23.17;21.87;;;;;;;;;;5000873;28;20465;-63
2021/08/14 13:15:22;;;;;;;23.67;21.97;;;;;;;;;;5013394;28;20980;-62
2021/08/14 13:17:50;;;;;;;22.93;21.63;;;;;;;;;;5013442;28;20460;-65
2021/08/14 13:20:19;;;;;;;23.70;22.10;;;;;;;;;;5012450;28;21011;-63
2021/08/14 13:22:47;;;;;;;23.90;22.60;;;;;;;;;;5013298;28;20450;-64
2021/08/14 13:25:14;;;;;;;24.10;22.70;;;;;;;;;;5013344;28;20473;-67
2021/08/14 13:27:43;;;;;;;22.87;21.57;;;;;;;;;;5012287;28;20479;-62
2021/08/14 13:30:11;;;;;;;25.40;23.90;;;;;;;;;;5012593;28;21017;-66
2021/08/14 13:32:39;;;;;;;23.93;22.53;;;;;;;;;;5012960;28;20454;-62
2021/08/14 13:35:06;;;;;;;24.60;23.13;;;;;;;;;;5013011;28;20489;-65
2021/08/14 13:37:35;;;;;;;24.07;22.67;;;;;;;;;;5012809;28;20957;-65
2021/08/14 13:40:02;;;;;;;24.17;22.60;;;;;;;;;;5012850;28;20497;-61
2021/08/14 13:42:29;;;;;;;24.93;23.33;;;;;;;;;;5012523;28;20458;-65
2021/08/14 13:44:56;;;;;;;24.23;22.70;;;;;;;;;;5010614;28;21000;-64
2021/08/14 13:47:23;;;;;;;23.93;22.43;;;;;;;;;;5012899;28;20456;-62
2021/08/14 13:49:50;;;;;;;23.83;22.33;;;;;;;;;;5012713;28;20450;-64
2021/08/14 13:52:18;;;;;;;23.40;22.10;;;;;;;;;;5003015;28;20464;-62
2021/08/14 13:54:47;;;;;;;23.60;22.30;;;;;;;;;;5003010;28;20473;-62
2021/08/14 13:57:14;;;;;;;25.00;23.30;;;;;;;;;;5012864;28;20456;-62
2021/08/14 13:59:41;;;;;;;23.63;22.30;;;;;;;;;;5006607;28;20465;-62
2021/08/14 14:02:08;;;;;;;23.23;21.80;;;;;;;;;;5012605;28;20937;-65
2021/08/14 14:04:35;;;;;;;24.23;22.73;;;;;;;;;;5011997;28;20457;-65
2021/08/14 14:07:02;;;;;;;23.87;22.20;;;;;;;;;;5012031;28;20453;-63
2021/08/14 14:09:29;;;;;;;23.47;21.87;;;;;;;;;;5012120;28;20458;-64
2021/08/14 14:11:59;;;;;;;23.87;22.33;;;;;;;;;;5004640;28;20470;-63
2021/08/14 14:14:27;;;;;;;23.37;21.97;;;;;;;;;;4998647;28;20442;-63
2021/08/14 14:16:54;;;;;;;23.30;21.80;;;;;;;;;;4997593;28;20454;-64
2021/08/14 14:19:21;;;;;;;24.00;22.50;;;;;;;;;;5012227;28;20458;-65
2021/08/14 14:21:49;;;;;;;24.43;22.93;;;;;;;;;;5000395;28;20493;-64